Time;durP1;ratioP1;P1;durP2;ratioP2;P2;SDS_P1;SDS_P2;PMS_P1;PMS_P2;Temp;Humidity;BMP_temperature;BMP_pressure;BME280_temperature;BME280_humidity;BME280_pressure;Samples;Min_cycle;Max_cycle;Signal;HPM_P1;HPM_P2
2022/01/23 00:02:35;;;;;;;0.40;0.40;;;-0.20;98.00;;;;;;5055069;28;20165;-68
2022/01/23 00:04:40;;;;;;;0.30;0.30;;;-0.20;98.10;;;;;;5054270;28;20190;-68
2022/01/23 00:07:09;;;;;;;0.40;0.40;;;-0.20;98.00;;;;;;5054840;28;20220;-69
2022/01/23 00:09:36;;;;;;;0.30;0.30;;;-0.20;97.80;;;;;;5054712;28;20213;-68
2022/01/23 00:12:06;;;;;;;0.40;0.40;;;-0.20;97.60;;;;;;5054613;28;20257;-69
2022/01/23 00:17:22;;;;;;;0.40;0.40;;;-0.30;97.20;;;;;;5054545;28;20177;-68
2022/01/23 00:19:57;;;;;;;0.40;0.40;;;-0.40;97.30;;;;;;5053218;28;20668;-68
2022/01/23 00:22:29;;;;;;;0.50;0.50;;;-0.50;97.40;;;;;;5053319;28;20715;-68
2022/01/23 00:30:28;;;;;;;0.40;0.40;;;-0.50;97.40;;;;;;5054382;28;20158;-69
2022/01/23 00:32:56;;;;;;;0.40;0.40;;;-0.60;97.40;;;;;;5054257;28;20167;-68
2022/01/23 00:35:22;;;;;;;0.40;0.40;;;-0.60;97.50;;;;;;5054000;28;20170;-68
2022/01/23 00:37:48;;;;;;;0.40;0.40;;;-0.50;97.60;;;;;;5054164;28;20261;-68
2022/01/23 00:40:14;;;;;;;0.52;0.52;;;-0.60;97.60;;;;;;5054236;28;20408;-68
2022/01/23 00:42:40;;;;;;;0.50;0.50;;;-0.50;97.70;;;;;;5054057;28;20329;-68
2022/01/23 00:47:55;;;;;;;5.07;2.58;;;-0.50;97.90;;;;;;5054323;28;20204;-68
2022/01/23 00:50:21;;;;;;;0.50;0.50;;;-0.50;97.90;;;;;;5053937;28;20197;-68
2022/01/23 00:52:47;;;;;;;0.50;0.50;;;-0.50;97.90;;;;;;5054130;28;20166;-68
2022/01/23 00:55:12;;;;;;;0.50;0.50;;;-0.40;97.90;;;;;;5053978;28;20568;-68
2022/01/23 00:57:38;;;;;;;0.40;0.40;;;-0.40;97.70;;;;;;5053698;28;20178;-68
2022/01/23 01:00:05;;;;;;;0.40;0.40;;;-0.40;97.50;;;;;;5053567;28;20212;-69
2022/01/23 01:02:31;;;;;;;0.52;0.52;;;-0.50;97.20;;;;;;5053527;28;20300;-68
2022/01/23 01:04:57;;;;;;;0.40;0.40;;;-0.60;97.10;;;;;;5053598;28;20650;-68
2022/01/23 01:07:23;;;;;;;0.50;0.50;;;-0.60;97.20;;;;;;5053450;28;20456;-68
2022/01/23 01:09:51;;;;;;;0.50;0.50;;;-0.60;97.30;;;;;;5053442;28;20702;-69
2022/01/23 01:12:23;;;;;;;0.50;0.50;;;-0.70;97.10;;;;;;5053798;28;20614;-68
2022/01/23 01:17:29;;;;;;;0.40;0.40;;;-0.70;97.20;;;;;;5053348;28;20220;-68
2022/01/23 01:30:57;;;;;;;0.40;0.40;;;-0.80;97.50;;;;;;5053533;28;20173;-68
2022/01/23 01:36:02;;;;;;;0.40;0.40;;;-0.80;97.20;;;;;;5053416;28;20182;-68
2022/01/23 01:38:28;;;;;;;0.70;0.70;;;-0.90;97.00;;;;;;5053484;28;20213;-68
2022/01/23 01:40:54;;;;;;;0.40;0.40;;;-0.90;97.20;;;;;;5053328;28;20179;-68
2022/01/23 01:43:20;;;;;;;0.60;0.60;;;-0.90;97.30;;;;;;5053336;28;20180;-69
2022/01/23 01:45:46;;;;;;;0.40;0.40;;;-0.90;97.40;;;;;;5053113;28;20174;-69
2022/01/23 01:48:15;;;;;;;0.50;0.50;;;-0.90;97.30;;;;;;5052908;28;21005;-68
2022/01/23 01:50:45;;;;;;;0.55;0.55;;;-0.90;97.10;;;;;;5053285;28;20174;-68
2022/01/23 01:53:12;;;;;;;0.40;0.40;;;-0.90;97.20;;;;;;5053399;28;20166;-69
2022/01/23 01:55:49;;;;;;;0.50;0.50;;;-0.90;97.50;;;;;;5056985;28;20174;-68
2022/01/23 01:58:55;;;;;;;0.50;0.50;;;-0.90;97.60;;;;;;5057313;28;20264;-68
2022/01/23 02:09:19;;;;;;;0.47;0.47;;;-1.10;97.10;;;;;;5057102;28;20705;-68
2022/01/23 02:55:26;;;;;;;0.40;0.40;;;-1.30;97.30;;;;;;5056350;28;20174;-68
2022/01/23 02:58:01;;;;;;;0.43;0.43;;;-1.30;97.10;;;;;;5056116;28;20185;-69
2022/01/23 03:00:34;;;;;;;0.50;0.50;;;-1.40;96.90;;;;;;5055965;28;20626;-68
2022/01/23 03:03:06;;;;;;;0.50;0.50;;;-1.40;96.90;;;;;;5055901;28;20652;-68
2022/01/23 03:10:46;;;;;;;0.40;0.40;;;-1.50;97.30;;;;;;5055837;28;20517;-68
2022/01/23 03:24:17;;;;;;;0.40;0.40;;;-1.40;96.90;;;;;;5055773;28;20571;-69
2022/01/23 03:26:59;;;;;;;0.50;0.50;;;-1.50;96.70;;;;;;5055431;28;20251;-68
2022/01/23 03:29:28;;;;;;;0.60;0.60;;;-1.70;96.90;;;;;;5055456;28;20198;-69
2022/01/23 03:34:23;;;;;;;0.53;0.53;;;-1.50;98.10;;;;;;5055525;28;20218;-69
2022/01/23 03:36:48;;;;;;;0.40;0.40;;;-1.30;98.00;;;;;;5055305;28;20169;-69
2022/01/23 03:39:14;;;;;;;0.50;0.50;;;-1.20;97.80;;;;;;5055250;28;20198;-69
2022/01/23 03:41:42;;;;;;;0.40;0.40;;;-1.10;97.60;;;;;;5055350;28;20178;-68
2022/01/23 03:44:10;;;;;;;0.52;0.52;;;-1.00;97.40;;;;;;5055390;28;20352;-68
2022/01/23 03:49:32;;;;;;;0.40;0.40;;;-0.90;97.60;;;;;;5055537;28;20212;-69
2022/01/23 03:52:09;;;;;;;0.50;0.50;;;-0.70;97.90;;;;;;5055078;28;20292;-69
2022/01/23 03:54:36;;;;;;;0.40;0.40;;;-0.60;97.80;;;;;;5055186;28;20247;-69
2022/01/23 03:57:03;;;;;;;0.40;0.40;;;-0.50;97.70;;;;;;5054835;28;20174;-69
2022/01/23 03:59:31;;;;;;;0.40;0.40;;;-0.30;97.70;;;;;;5054854;28;20220;-69
2022/01/23 04:01:57;;;;;;;0.40;0.40;;;-0.20;97.40;;;;;;5055123;28;20193;-69
2022/01/23 04:04:40;;;;;;;0.40;0.40;;;-0.20;96.70;;;;;;5054890;28;20163;-68
2022/01/23 04:07:07;;;;;;;0.40;0.40;;;-0.40;96.10;;;;;;5054768;28;20174;-68
2022/01/23 04:09:33;;;;;;;0.40;0.40;;;-0.30;96.40;;;;;;5054891;28;20590;-68
2022/01/23 04:12:00;;;;;;;0.40;0.40;;;-0.20;96.50;;;;;;5054709;28;20170;-69
2022/01/23 04:14:27;;;;;;;0.40;0.40;;;-0.10;96.70;;;;;;5054765;28;20169;-68
2022/01/23 04:17:36;;;;;;;0.40;0.40;;;0.00;96.90;;;;;;5054035;28;20169;-68
2022/01/23 05:00:09;;;;;;;0.30;0.30;;;1.20;96.30;;;;;;5053753;28;20244;-68
2022/01/23 05:05:25;;;;;;;0.30;0.30;;;1.20;97.30;;;;;;5054012;28;20224;-69
2022/01/23 05:07:50;;;;;;;0.38;0.38;;;1.40;96.90;;;;;;5053778;28;20285;-69
2022/01/23 05:10:16;;;;;;;0.30;0.30;;;1.50;96.70;;;;;;5053632;28;20249;-69
2022/01/23 05:12:42;;;;;;;0.40;0.40;;;1.50;97.00;;;;;;5053619;28;20212;-68
2022/01/23 05:15:11;;;;;;;0.30;0.30;;;1.60;96.60;;;;;;5053676;28;20764;-69
2022/01/23 05:17:36;;;;;;;0.30;0.30;;;1.60;95.80;;;;;;5053521;28;20213;-68
2022/01/23 05:20:04;;;;;;;0.30;0.30;;;1.60;95.30;;;;;;5054098;28;20178;-69
2022/01/23 05:22:38;;;;;;;0.30;0.30;;;1.60;95.80;;;;;;5053626;28;20821;-68
2022/01/23 05:27:33;;;;;;;0.30;0.30;;;1.40;95.90;;;;;;5053272;28;20293;-68
2022/01/23 05:29:59;;;;;;;0.30;0.30;;;1.40;96.00;;;;;;5052640;28;20273;-69
2022/01/23 05:32:28;;;;;;;0.40;0.40;;;1.40;95.90;;;;;;5053681;28;20193;-69
2022/01/23 05:34:55;;;;;;;0.30;0.30;;;1.40;96.10;;;;;;5053493;28;20201;-69
2022/01/23 05:37:21;;;;;;;0.30;0.30;;;1.50;96.30;;;;;;5053083;28;20253;-68
2022/01/23 05:39:46;;;;;;;0.30;0.30;;;1.50;96.20;;;;;;5053252;28;20277;-69
2022/01/23 05:42:12;;;;;;;0.40;0.40;;;1.50;96.00;;;;;;5053321;28;20169;-69
2022/01/23 05:44:40;;;;;;;0.30;0.30;;;1.40;96.00;;;;;;5053437;28;20636;-69
2022/01/23 05:47:07;;;;;;;0.40;0.40;;;1.30;96.00;;;;;;5053354;28;20169;-68
2022/01/23 05:49:33;;;;;;;0.30;0.30;;;1.20;96.20;;;;;;5053283;28;20679;-69
2022/01/23 05:51:59;;;;;;;0.30;0.30;;;1.30;96.40;;;;;;5053425;28;20641;-69
2022/01/23 05:54:26;;;;;;;0.40;0.40;;;1.30;96.60;;;;;;5053370;28;20300;-69
2022/01/23 05:56:51;;;;;;;0.30;0.30;;;1.30;96.80;;;;;;5053029;28;20526;-69
2022/01/23 05:59:17;;;;;;;0.40;0.40;;;1.40;96.80;;;;;;5052823;28;20428;-69
2022/01/23 06:01:46;;;;;;;0.40;0.40;;;1.40;96.80;;;;;;5053323;28;20409;-69
2022/01/23 06:04:12;;;;;;;0.40;0.40;;;1.40;96.90;;;;;;5053217;28;20173;-69
2022/01/23 06:06:37;;;;;;;0.60;0.60;;;1.40;97.00;;;;;;5051717;28;20174;-69
2022/01/23 06:09:03;;;;;;;0.30;0.30;;;1.40;96.80;;;;;;5052937;28;20559;-69
2022/01/23 06:11:29;;;;;;;0.30;0.30;;;1.40;96.80;;;;;;5053112;28;20170;-69
2022/01/23 06:13:54;;;;;;;0.30;0.30;;;1.30;96.60;;;;;;5053138;28;20201;-69
2022/01/23 06:16:20;;;;;;;0.30;0.30;;;1.30;96.90;;;;;;5051643;28;20175;-69
2022/01/23 06:18:46;;;;;;;0.30;0.30;;;1.30;97.10;;;;;;5053037;28;20670;-69
2022/01/23 06:21:15;;;;;;;0.30;0.30;;;1.40;97.20;;;;;;5052874;28;20699;-69
2022/01/23 06:23:40;;;;;;;0.30;0.30;;;1.50;97.50;;;;;;5052924;28;20224;-68
2022/01/23 06:26:06;;;;;;;0.40;0.40;;;1.50;97.50;;;;;;5052689;28;20553;-69
2022/01/23 06:28:47;;;;;;;0.30;0.30;;;1.60;97.30;;;;;;5052805;28;20233;-69
2022/01/23 06:31:13;;;;;;;0.30;0.30;;;1.50;96.50;;;;;;5052879;28;20146;-69
2022/01/23 06:33:38;;;;;;;0.30;0.30;;;1.50;96.30;;;;;;5052754;28;20182;-69
2022/01/23 06:36:04;;;;;;;0.40;0.40;;;1.50;96.30;;;;;;5052642;28;20178;-68
2022/01/23 06:38:30;;;;;;;0.40;0.40;;;1.50;96.60;;;;;;5051399;28;20205;-69
2022/01/23 06:40:56;;;;;;;0.40;0.40;;;1.50;96.80;;;;;;5055276;28;20671;-69
2022/01/23 06:43:22;;;;;;;0.30;0.30;;;1.60;96.70;;;;;;5056352;28;20700;-69
2022/01/23 06:45:47;;;;;;;0.30;0.30;;;1.60;96.50;;;;;;5056324;28;20909;-69
2022/01/23 06:48:13;;;;;;;0.40;0.40;;;1.60;96.50;;;;;;5056157;28;20466;-69
2022/01/23 06:50:39;;;;;;;1.00;1.00;;;1.60;96.60;;;;;;5056316;28;20173;-68
2022/01/23 06:53:04;;;;;;;0.30;0.30;;;1.70;96.60;;;;;;5056278;28;20495;-69
2022/01/23 06:55:30;;;;;;;2.50;2.30;;;1.60;96.80;;;;;;5056201;28;20167;-69
2022/01/23 06:57:56;;;;;;;0.30;0.30;;;1.60;97.10;;;;;;5056225;28;20249;-69
2022/01/23 07:00:21;;;;;;;0.30;0.30;;;1.70;97.10;;;;;;5056003;28;20182;-69
2022/01/23 07:02:47;;;;;;;0.40;0.40;;;1.80;97.30;;;;;;5056175;28;20171;-69
2022/01/23 07:05:13;;;;;;;0.40;0.40;;;1.80;97.70;;;;;;5056222;28;20504;-69
2022/01/23 07:07:38;;;;;;;0.30;0.30;;;1.90;98.00;;;;;;5055660;28;20194;-69
2022/01/23 07:10:05;;;;;;;0.40;0.40;;;2.10;97.80;;;;;;5056028;28;20177;-69
2022/01/23 07:12:30;;;;;;;0.40;0.40;;;2.20;97.70;;;;;;5055857;28;20539;-69
2022/01/23 07:14:56;;;;;;;0.40;0.40;;;2.20;97.70;;;;;;5055987;28;20176;-69
2022/01/23 07:17:22;;;;;;;0.40;0.40;;;2.30;97.80;;;;;;5055481;28;20167;-69
2022/01/23 07:19:47;;;;;;;0.30;0.30;;;2.50;97.60;;;;;;5056028;28;20657;-69
2022/01/23 07:22:13;;;;;;;0.30;0.30;;;2.50;97.60;;;;;;5055852;28;20531;-69
2022/01/23 07:24:38;;;;;;;0.30;0.30;;;2.60;97.60;;;;;;5055809;28;20221;-69
2022/01/23 07:27:16;;;;;;;0.30;0.30;;;2.70;97.60;;;;;;5055561;28;20182;-69
2022/01/23 07:29:43;;;;;;;0.30;0.30;;;2.80;97.70;;;;;;5055422;28;20202;-69
2022/01/23 07:32:09;;;;;;;0.30;0.30;;;2.90;97.50;;;;;;5055524;28;20198;-69
2022/01/23 07:34:36;;;;;;;0.30;0.30;;;3.00;97.30;;;;;;5055680;28;20167;-69
2022/01/23 07:37:01;;;;;;;0.40;0.40;;;3.10;97.30;;;;;;5055292;28;20172;-69
2022/01/23 07:39:27;;;;;;;0.40;0.40;;;3.00;97.10;;;;;;5055299;28;20195;-69
2022/01/23 07:41:54;;;;;;;0.30;0.30;;;2.80;97.20;;;;;;5055287;28;20171;-69
2022/01/23 07:44:20;;;;;;;0.30;0.30;;;2.50;97.40;;;;;;5055294;28;20426;-69
2022/01/23 07:46:45;;;;;;;0.37;0.37;;;2.70;98.00;;;;;;5055241;28;20548;-68
2022/01/23 07:49:11;;;;;;;0.30;0.30;;;2.50;97.90;;;;;;5054889;28;20462;-69
2022/01/23 07:51:37;;;;;;;0.30;0.30;;;2.40;98.40;;;;;;5054420;28;20255;-68
2022/01/23 07:54:03;;;;;;;0.30;0.30;;;2.80;98.60;;;;;;5055198;28;20168;-68
2022/01/23 07:56:29;;;;;;;0.30;0.30;;;3.00;98.10;;;;;;5054894;28;20537;-69
2022/01/23 07:58:55;;;;;;;0.30;0.30;;;3.10;97.90;;;;;;5054950;28;20291;-69
2022/01/23 08:01:20;;;;;;;0.40;0.40;;;3.30;97.80;;;;;;5055245;28;20581;-69
2022/01/23 08:03:46;;;;;;;0.30;0.30;;;3.50;97.30;;;;;;5055019;28;20585;-69
2022/01/23 08:06:12;;;;;;;0.40;0.40;;;3.60;97.10;;;;;;5054598;28;20177;-68
2022/01/23 08:08:38;;;;;;;0.35;0.35;;;3.60;96.90;;;;;;5054805;28;20197;-69
2022/01/23 08:11:06;;;;;;;0.30;0.30;;;3.60;96.90;;;;;;5054786;28;20178;-69
2022/01/23 08:13:32;;;;;;;0.40;0.40;;;3.80;96.90;;;;;;5054630;28;20543;-69
2022/01/23 08:15:57;;;;;;;0.30;0.30;;;3.90;96.50;;;;;;5054783;28;20255;-69
2022/01/23 08:18:23;;;;;;;0.30;0.30;;;4.00;96.00;;;;;;5054482;28;20242;-69
2022/01/23 08:20:49;;;;;;;0.40;0.40;;;4.10;96.00;;;;;;5054872;28;20216;-69
2022/01/23 08:23:14;;;;;;;0.40;0.40;;;4.30;95.90;;;;;;5054536;28;20190;-69
2022/01/23 08:25:41;;;;;;;0.40;0.40;;;4.30;95.80;;;;;;5054480;28;20181;-69
2022/01/23 08:28:10;;;;;;;0.40;0.40;;;4.40;95.60;;;;;;5054420;28;20211;-69
2022/01/23 08:30:36;;;;;;;0.40;0.40;;;4.50;95.50;;;;;;5054397;28;20169;-69
2022/01/23 08:33:01;;;;;;;0.33;0.33;;;4.60;95.60;;;;;;5054550;28;20177;-69
2022/01/23 08:35:28;;;;;;;0.30;0.30;;;4.70;95.30;;;;;;5054094;28;20211;-69
2022/01/23 08:37:53;;;;;;;0.30;0.30;;;4.70;94.90;;;;;;5054393;28;20636;-69
2022/01/23 08:40:33;;;;;;;0.33;0.33;;;4.60;95.00;;;;;;5054209;28;20182;-69
2022/01/23 08:42:59;;;;;;;0.38;0.38;;;4.70;95.30;;;;;;5054174;28;20526;-69
2022/01/23 08:45:24;;;;;;;0.40;0.40;;;4.90;95.00;;;;;;5054185;28;20363;-69
2022/01/23 08:47:50;;;;;;;0.40;0.40;;;5.00;94.50;;;;;;5054023;28;20642;-69
2022/01/23 08:50:16;;;;;;;0.40;0.40;;;5.00;94.60;;;;;;5054037;28;20682;-69
2022/01/23 08:52:42;;;;;;;0.40;0.40;;;5.20;94.20;;;;;;5054225;28;20170;-69
2022/01/23 08:55:08;;;;;;;0.40;0.40;;;5.50;94.40;;;;;;5054136;28;20404;-69
2022/01/23 08:57:33;;;;;;;0.40;0.40;;;5.50;93.10;;;;;;5053709;28;20479;-69
2022/01/23 08:59:59;;;;;;;0.40;0.40;;;5.50;93.10;;;;;;5053702;28;20806;-69
2022/01/23 09:02:25;;;;;;;0.40;0.40;;;5.60;92.90;;;;;;5053826;28;20249;-69
2022/01/23 09:04:51;;;;;;;0.40;0.40;;;5.60;93.20;;;;;;5052665;28;20544;-69
2022/01/23 09:07:16;;;;;;;0.40;0.40;;;5.80;92.60;;;;;;5053469;28;20204;-69
2022/01/23 09:09:42;;;;;;;0.40;0.40;;;5.90;91.30;;;;;;5053610;28;20429;-69
2022/01/23 09:13:04;;;;;;;0.40;0.40;;;6.20;91.40;;;;;;5053809;28;20177;-69
2022/01/23 09:14:56;;;;;;;0.35;0.35;;;6.40;90.60;;;;;;5056459;28;20206;-69
2022/01/23 09:17:22;;;;;;;0.40;0.40;;;6.60;90.60;;;;;;5052287;28;20308;-69
2022/01/23 09:19:48;;;;;;;0.40;0.40;;;6.70;90.40;;;;;;5053533;28;20698;-69
2022/01/23 09:22:14;;;;;;;0.40;0.40;;;7.00;89.50;;;;;;5053679;28;20902;-69
2022/01/23 09:24:40;;;;;;;0.40;0.40;;;7.10;88.70;;;;;;5053522;28;20197;-69
2022/01/23 09:27:13;;;;;;;0.40;0.40;;;7.40;87.20;;;;;;5053315;28;20182;-69
2022/01/23 09:29:41;;;;;;;0.40;0.40;;;7.60;86.70;;;;;;5053302;28;20464;-69
2022/01/23 09:32:11;;;;;;;0.40;0.40;;;7.80;85.30;;;;;;5053641;28;20169;-69
2022/01/23 09:34:37;;;;;;;0.40;0.40;;;8.20;83.70;;;;;;5052001;28;20711;-69
2022/01/23 09:37:06;;;;;;;0.40;0.40;;;8.40;80.70;;;;;;5053260;28;20180;-69
2022/01/23 09:39:33;;;;;;;0.40;0.40;;;8.60;80.60;;;;;;5053483;28;20518;-69
2022/01/23 09:42:22;;;;;;;0.40;0.40;;;8.60;80.50;;;;;;5053386;28;20177;-69
2022/01/23 09:44:59;;;;;;;0.40;0.40;;;8.80;78.20;;;;;;5053286;28;20273;-69
2022/01/23 09:47:26;;;;;;;0.40;0.40;;;8.90;78.50;;;;;;5052971;28;20633;-69
2022/01/23 09:49:54;;;;;;;0.40;0.40;;;8.80;77.00;;;;;;5053283;28;20679;-69
2022/01/23 09:52:21;;;;;;;0.40;0.40;;;8.70;76.40;;;;;;5053391;28;20180;-69
2022/01/23 09:54:59;;;;;;;0.30;0.30;;;8.50;76.90;;;;;;5053337;28;20176;-69
2022/01/23 09:57:29;;;;;;;0.30;0.30;;;8.80;78.70;;;;;;5053238;28;20239;-69
2022/01/23 09:59:57;;;;;;;0.40;0.40;;;9.50;74.40;;;;;;5053009;28;20682;-69
2022/01/23 10:02:24;;;;;;;0.35;0.35;;;9.80;73.10;;;;;;5053131;28;20194;-69
2022/01/23 10:04:53;;;;;;;0.30;0.30;;;10.10;70.20;;;;;;5053260;28;20579;-70
2022/01/23 10:07:20;;;;;;;0.30;0.30;;;10.20;68.10;;;;;;5053015;28;20666;-69
2022/01/23 10:09:52;;;;;;;0.30;0.30;;;10.30;67.80;;;;;;5053046;28;20182;-69
2022/01/23 10:12:19;;;;;;;0.30;0.30;;;10.90;66.30;;;;;;5053228;28;20167;-69
2022/01/23 10:14:45;;;;;;;0.30;0.30;;;11.80;62.70;;;;;;5053797;28;20175;-70
2022/01/23 10:17:11;;;;;;;0.30;0.30;;;12.00;60.20;;;;;;5056783;28;20581;-69
2022/01/23 10:19:38;;;;;;;0.30;0.30;;;11.80;59.40;;;;;;5056840;28;20190;-69
2022/01/23 10:22:06;;;;;;;0.30;0.30;;;11.20;60.20;;;;;;5056996;28;20170;-70
2022/01/23 10:24:32;;;;;;;0.30;0.30;;;10.50;63.30;;;;;;5056827;28;20182;-69
2022/01/23 10:26:59;;;;;;;0.30;0.30;;;10.30;63.80;;;;;;5056649;28;20184;-69
2022/01/23 10:29:27;;;;;;;0.40;0.40;;;9.30;66.10;;;;;;5056627;28;20244;-70
2022/01/23 10:32:04;;;;;;;0.40;0.40;;;8.50;70.40;;;;;;5056733;28;20194;-69
2022/01/23 10:34:49;;;;;;;0.40;0.40;;;8.30;71.80;;;;;;5056722;28;20520;-69
2022/01/23 10:37:25;;;;;;;0.40;0.40;;;8.30;73.00;;;;;;5056220;28;20164;-69
2022/01/23 10:39:51;;;;;;;0.40;0.40;;;8.10;72.00;;;;;;5055969;28;20179;-69
2022/01/23 10:48:01;;;;;;;0.40;0.40;;;6.40;77.70;;;;;;5056699;28;20635;-69
2022/01/23 10:50:28;;;;;;;0.30;0.30;;;6.20;80.60;;;;;;5056360;28;20155;-69
2022/01/23 10:52:59;;;;;;;0.40;0.40;;;6.20;81.50;;;;;;5056522;28;20514;-69
2022/01/23 10:55:29;;;;;;;0.40;0.40;;;6.80;81.40;;;;;;5056292;28;20189;-69
2022/01/23 10:58:00;;;;;;;0.40;0.40;;;7.10;79.20;;;;;;5056322;28;20179;-69
2022/01/23 11:00:31;;;;;;;0.40;0.40;;;6.90;78.80;;;;;;5056110;28;20182;-69
2022/01/23 11:03:00;;;;;;;0.40;0.40;;;6.60;80.00;;;;;;5056287;28;20166;-69
2022/01/23 11:05:39;;;;;;;0.40;0.40;;;6.50;80.30;;;;;;5056077;28;20182;-69
2022/01/23 11:08:30;;;;;;;0.40;0.40;;;6.50;80.30;;;;;;5055814;28;20198;-69
2022/01/23 11:11:04;;;;;;;0.40;0.40;;;6.10;82.10;;;;;;5056180;28;20166;-69
2022/01/23 11:19:24;;;;;;;0.40;0.40;;;6.40;82.40;;;;;;5055746;28;20686;-69
2022/01/23 11:21:52;;;;;;;0.40;0.40;;;6.70;81.60;;;;;;5055936;28;20179;-69
2022/01/23 11:24:20;;;;;;;0.40;0.40;;;6.90;81.20;;;;;;5055891;28;20171;-69
2022/01/23 11:26:46;;;;;;;0.40;0.40;;;7.30;79.90;;;;;;5054179;28;20552;-69
2022/01/23 11:29:18;;;;;;;0.40;0.40;;;6.90;79.40;;;;;;5055429;28;20209;-69
2022/01/23 11:31:44;;;;;;;0.40;0.40;;;6.80;80.80;;;;;;5056017;28;20269;-69
2022/01/23 11:34:12;;;;;;;0.40;0.40;;;7.00;80.80;;;;;;5055707;28;20237;-69
2022/01/23 11:36:39;;;;;;;0.40;0.40;;;7.30;80.20;;;;;;5055389;28;20164;-70
2022/01/23 11:39:14;;;;;;;0.40;0.40;;;7.80;78.30;;;;;;5055489;28;20230;-70
2022/01/23 11:50:44;;;;;;;0.40;0.40;;;7.90;77.10;;;;;;5055220;28;20245;-69
2022/01/23 11:56:25;;;;;;;0.30;0.30;;;7.10;78.90;;;;;;5054979;28;20177;-69
2022/01/23 11:58:55;;;;;;;0.40;0.40;;;7.30;80.30;;;;;;5055071;28;20206;-69
2022/01/23 12:01:25;;;;;;;0.40;0.40;;;7.50;79.30;;;;;;5055053;28;20199;-69
2022/01/23 12:04:06;;;;;;;0.40;0.40;;;7.30;79.00;;;;;;5055025;28;20210;-69
2022/01/23 12:06:32;;;;;;;0.30;0.30;;;7.30;80.40;;;;;;5054750;28;20252;-69
2022/01/23 12:09:10;;;;;;;0.40;0.40;;;7.50;79.50;;;;;;5054892;28;20298;-69
2022/01/23 12:11:48;;;;;;;0.40;0.40;;;7.40;79.00;;;;;;5054884;28;20162;-69
2022/01/23 12:17:05;;;;;;;0.40;0.40;;;7.10;80.00;;;;;;5054532;28;20582;-69
2022/01/23 12:19:35;;;;;;;0.40;0.40;;;7.00;81.20;;;;;;5054648;28;20283;-69
2022/01/23 12:22:36;;;;;;;0.40;0.40;;;7.00;81.60;;;;;;5054657;28;20172;-70
2022/01/23 12:25:08;;;;;;;0.40;0.40;;;7.40;81.40;;;;;;5054484;28;20222;-69
2022/01/23 12:27:33;;;;;;;0.35;0.35;;;7.10;81.10;;;;;;5054306;28;20178;-69
2022/01/23 12:30:17;;;;;;;0.40;0.40;;;6.80;82.70;;;;;;5054305;28;20219;-69
2022/01/23 12:32:43;;;;;;;0.30;0.30;;;7.10;82.40;;;;;;5054375;28;20536;-70
2022/01/23 12:35:10;;;;;;;0.30;0.30;;;7.60;81.00;;;;;;5054210;28;20239;-69
2022/01/23 12:38:02;;;;;;;0.40;0.40;;;7.80;80.10;;;;;;5053674;28;20164;-69
2022/01/23 12:40:32;;;;;;;0.40;0.40;;;7.40;80.30;;;;;;5054158;28;20173;-69
2022/01/23 12:43:15;;;;;;;0.40;0.40;;;7.50;80.80;;;;;;5054206;28;20159;-69
2022/01/23 12:46:00;;;;;;;0.40;0.40;;;7.40;80.90;;;;;;5054094;28;20542;-69
2022/01/23 12:48:26;;;;;;;0.40;0.40;;;7.30;81.40;;;;;;5053943;28;20226;-69
2022/01/23 12:51:00;;;;;;;0.30;0.30;;;7.20;81.70;;;;;;5054010;28;20645;-70
2022/01/23 12:53:47;;;;;;;0.30;0.30;;;7.00;81.80;;;;;;5054201;28;20166;-69
2022/01/23 12:56:16;;;;;;;0.40;0.40;;;6.80;83.00;;;;;;5052575;28;20268;-69
2022/01/23 12:58:42;;;;;;;0.40;0.40;;;6.60;83.50;;;;;;5053929;28;20190;-70
2022/01/23 13:01:18;;;;;;;0.40;0.40;;;6.60;84.10;;;;;;5054328;28;20640;-69
2022/01/23 13:03:58;;;;;;;0.40;0.40;;;6.50;84.50;;;;;;5054065;28;20205;-69
2022/01/23 13:06:30;;;;;;;0.40;0.40;;;6.00;85.30;;;;;;5053623;28;20174;-69
2022/01/23 13:09:19;;;;;;;0.40;0.40;;;6.00;86.60;;;;;;5053688;28;20222;-69
2022/01/23 13:12:12;;;;;;;0.30;0.30;;;6.40;86.10;;;;;;5053535;28;20170;-69
2022/01/23 13:14:43;;;;;;;0.40;0.40;;;6.70;85.00;;;;;;5053855;28;20174;-70
2022/01/23 13:17:37;;;;;;;0.40;0.40;;;6.60;84.40;;;;;;5053656;28;20166;-69
2022/01/23 13:30:55;;;;;;;0.30;0.30;;;6.30;85.80;;;;;;5053700;28;20183;-69
2022/01/23 13:33:23;;;;;;;0.35;0.35;;;6.50;85.50;;;;;;5053476;28;20162;-69
2022/01/23 13:35:53;;;;;;;0.40;0.40;;;6.70;84.80;;;;;;5053337;28;20181;-69
2022/01/23 13:38:21;;;;;;;0.40;0.40;;;6.80;84.50;;;;;;5053987;28;20194;-69
2022/01/23 13:41:00;;;;;;;0.40;0.40;;;6.40;84.40;;;;;;5053372;28;20249;-69
2022/01/23 14:00:12;;;;;;;0.40;0.40;;;5.40;88.30;;;;;;5057158;28;20207;-69
2022/01/23 14:02:42;;;;;;;0.30;0.30;;;5.40;88.90;;;;;;5057582;28;20178;-69
2022/01/23 14:05:27;;;;;;;0.40;0.40;;;5.50;89.00;;;;;;5057462;28;20174;-69
2022/01/23 14:07:58;;;;;;;0.40;0.40;;;5.30;89.00;;;;;;5057206;28;20881;-69
2022/01/23 14:10:36;;;;;;;0.40;0.40;;;5.20;89.30;;;;;;5057102;28;20181;-69
2022/01/23 14:13:15;;;;;;;0.65;0.65;;;5.20;89.80;;;;;;5057399;28;20170;-70
2022/01/23 14:15:52;;;;;;;0.40;0.40;;;5.20;90.10;;;;;;5057089;28;20654;-69
2022/01/23 14:18:24;;;;;;;0.30;0.30;;;5.20;90.00;;;;;;5057255;28;20284;-69
2022/01/23 14:21:03;;;;;;;0.50;0.50;;;5.10;90.00;;;;;;5057327;28;20703;-69
2022/01/23 14:23:29;;;;;;;0.32;0.32;;;5.10;90.20;;;;;;5056829;28;20200;-69
2022/01/23 14:25:59;;;;;;;0.38;0.38;;;4.90;90.40;;;;;;5056774;28;20170;-69
2022/01/23 14:28:40;;;;;;;0.30;0.30;;;4.90;90.60;;;;;;5056892;28;20201;-69
2022/01/23 14:31:24;;;;;;;0.38;0.38;;;4.70;90.70;;;;;;5056961;28;20173;-69
2022/01/23 14:33:56;;;;;;;0.40;0.40;;;4.60;91.00;;;;;;5056837;28;20196;-69
2022/01/23 14:36:24;;;;;;;0.40;0.40;;;4.50;91.10;;;;;;5056678;28;20167;-69
2022/01/23 14:38:56;;;;;;;0.30;0.30;;;4.50;91.20;;;;;;5056452;28;20204;-69
2022/01/23 14:41:27;;;;;;;0.40;0.40;;;4.50;91.40;;;;;;5056529;28;20175;-69
2022/01/23 14:43:53;;;;;;;0.30;0.30;;;4.30;91.60;;;;;;5056737;28;20574;-69
2022/01/23 14:46:19;;;;;;;0.33;0.33;;;4.20;91.80;;;;;;5056334;28;20183;-69
2022/01/23 14:48:49;;;;;;;0.40;0.40;;;4.00;92.00;;;;;;5056450;28;20205;-69
2022/01/23 14:51:21;;;;;;;0.30;0.30;;;3.70;92.70;;;;;;5056262;28;20184;-69
2022/01/23 14:53:48;;;;;;;0.30;0.30;;;3.70;93.20;;;;;;5056316;28;20628;-69
2022/01/23 14:56:14;;;;;;;0.38;0.38;;;3.50;93.60;;;;;;5054885;28;20174;-69
2022/01/23 14:58:41;;;;;;;0.30;0.30;;;3.70;93.80;;;;;;5056017;28;20198;-69
2022/01/23 15:01:11;;;;;;;0.40;0.40;;;3.50;93.80;;;;;;5056005;28;20176;-69
2022/01/23 15:03:38;;;;;;;0.40;0.40;;;3.50;93.90;;;;;;5056313;28;20252;-69
2022/01/23 15:06:05;;;;;;;0.32;0.32;;;3.20;94.50;;;;;;5055971;28;20170;-69
2022/01/23 15:08:31;;;;;;;0.30;0.30;;;3.30;94.90;;;;;;5056019;28;20209;-69
2022/01/23 15:11:00;;;;;;;0.40;0.40;;;3.00;95.00;;;;;;5055891;28;20227;-69
2022/01/23 15:13:29;;;;;;;0.40;0.40;;;3.10;95.30;;;;;;5056078;28;20167;-69
2022/01/23 15:15:55;;;;;;;0.40;0.40;;;3.30;95.10;;;;;;5055825;28;20212;-69
2022/01/23 15:18:22;;;;;;;0.38;0.38;;;3.20;94.90;;;;;;5055736;28;20199;-69
2022/01/23 15:20:48;;;;;;;0.30;0.30;;;3.10;95.10;;;;;;5055927;28;20583;-68
2022/01/23 15:23:16;;;;;;;0.40;0.40;;;3.10;95.40;;;;;;5055621;28;20277;-68
2022/01/23 15:25:44;;;;;;;0.40;0.40;;;3.20;95.40;;;;;;5055527;28;20572;-68
2022/01/23 15:28:11;;;;;;;0.30;0.30;;;3.30;95.20;;;;;;5055587;28;20205;-69
2022/01/23 15:30:37;;;;;;;0.40;0.40;;;3.30;95.00;;;;;;5055608;28;20219;-68
2022/01/23 15:33:08;;;;;;;0.40;0.40;;;3.40;95.00;;;;;;5055657;28;20170;-68
2022/01/23 15:35:37;;;;;;;0.30;0.30;;;3.40;94.70;;;;;;5055864;28;20623;-69
2022/01/23 15:38:03;;;;;;;0.30;0.30;;;3.40;94.50;;;;;;5055792;28;20189;-68
2022/01/23 15:40:29;;;;;;;0.30;0.30;;;3.30;94.60;;;;;;5055385;28;20184;-68
2022/01/23 15:42:56;;;;;;;0.30;0.30;;;3.20;94.60;;;;;;5055502;28;20179;-69
2022/01/23 15:45:24;;;;;;;0.30;0.30;;;3.10;94.70;;;;;;5055452;28;20518;-69
2022/01/23 15:47:51;;;;;;;0.40;0.40;;;3.00;94.90;;;;;;5055093;28;20543;-68
2022/01/23 15:50:19;;;;;;;0.30;0.30;;;2.80;95.10;;;;;;5055204;28;20172;-68
2022/01/23 15:52:46;;;;;;;0.40;0.40;;;2.90;95.20;;;;;;5055252;28;20171;-68
2022/01/23 15:55:13;;;;;;;0.40;0.40;;;2.80;95.10;;;;;;5055259;28;20180;-68
2022/01/23 15:57:40;;;;;;;0.35;0.35;;;2.70;95.10;;;;;;5055048;28;20223;-68
2022/01/23 16:00:08;;;;;;;0.38;0.38;;;2.70;95.10;;;;;;5054799;28;20195;-68
2022/01/23 16:02:34;;;;;;;0.30;0.30;;;2.70;95.10;;;;;;5055022;28;20169;-68
2022/01/23 16:05:00;;;;;;;0.30;0.30;;;2.60;95.30;;;;;;5054932;28;20196;-68
2022/01/23 16:07:26;;;;;;;0.40;0.40;;;2.60;95.20;;;;;;5054743;28;20631;-68
2022/01/23 16:09:52;;;;;;;0.30;0.30;;;2.50;95.20;;;;;;5054739;28;20208;-68
2022/01/23 16:12:18;;;;;;;0.30;0.30;;;2.60;95.30;;;;;;5054313;28;20674;-69
2022/01/23 16:14:44;;;;;;;0.40;0.40;;;2.60;95.10;;;;;;5054936;28;20197;-68
2022/01/23 16:17:10;;;;;;;0.40;0.40;;;2.40;95.20;;;;;;5054547;28;20486;-68
2022/01/23 16:19:36;;;;;;;0.38;0.38;;;2.50;95.30;;;;;;5054579;28;20270;-68
2022/01/23 16:22:02;;;;;;;0.30;0.30;;;2.50;95.20;;;;;;5054677;28;20172;-68
2022/01/23 16:24:28;;;;;;;0.40;0.40;;;2.50;95.10;;;;;;5054691;28;20229;-68
2022/01/23 16:26:55;;;;;;;0.40;0.40;;;2.40;95.00;;;;;;5054346;28;20177;-68